West Hurley, New York
Current Conditions -  °F | °C
As of 11:03 PM on Wednesday 26 Nov 2014 (Local Time) from KPOU Reporting Station
Light Snow Light Snow  
Wind Chill: 25°   Ceiling: 1600
Heat Index: 34°   Visibility: 5mi
Dew Point: 29°   Wind: 14mph
Humidity: 82%   Direction: 350°N
Pressure: 29.85"   Gusts: 23mph
Location:  42.01°N, 74.11°W
Report Text: KPOU 270403Z 35012G20KT 5SM -SN BKN016 OVC032 01/M02 A2985 RMK AO2 SNB0358 P0000 T00111017
Loading
Personal Weather Stations






























Interactive Weather Map New forecast layout! Learn more

10-Day Weather Forecast

Advertisements
Track Severe Weather on mobile